sensor_id;sensor_type;location;lat;lon;timestamp;P1;durP1;ratioP1;P2;durP2;ratioP2
16115;SDS011;8162;47.104;15.432;2022-11-04T00:01:41;24.90;;;14.07;;
16115;SDS011;8162;47.104;15.432;2022-11-04T00:04:09;18.63;;;13.83;;
16115;SDS011;8162;47.104;15.432;2022-11-04T00:06:35;19.17;;;14.70;;
16115;SDS011;8162;47.104;15.432;2022-11-04T00:09:02;22.17;;;14.43;;
16115;SDS011;8162;47.104;15.432;2022-11-04T00:11:29;19.87;;;13.30;;
16115;SDS011;8162;47.104;15.432;2022-11-04T00:14:13;19.13;;;14.50;;
16115;SDS011;8162;47.104;15.432;2022-11-04T00:16:40;18.80;;;13.43;;
16115;SDS011;8162;47.104;15.432;2022-11-04T00:19:24;22.90;;;14.17;;
16115;SDS011;8162;47.104;15.432;2022-11-04T00:21:51;17.10;;;13.87;;
16115;SDS011;8162;47.104;15.432;2022-11-04T00:24:35;20.53;;;13.40;;
16115;SDS011;8162;47.104;15.432;2022-11-04T00:27:08;20.90;;;14.70;;
16115;SDS011;8162;47.104;15.432;2022-11-04T00:29:56;19.60;;;13.53;;
16115;SDS011;8162;47.104;15.432;2022-11-04T00:32:22;17.27;;;13.70;;
16115;SDS011;8162;47.104;15.432;2022-11-04T00:35:07;23.37;;;14.27;;
16115;SDS011;8162;47.104;15.432;2022-11-04T00:37:42;20.80;;;14.13;;
16115;SDS011;8162;47.104;15.432;2022-11-04T00:40:10;19.43;;;13.80;;
16115;SDS011;8162;47.104;15.432;2022-11-04T00:42:37;20.23;;;14.43;;
16115;SDS011;8162;47.104;15.432;2022-11-04T00:45:03;18.93;;;14.13;;
16115;SDS011;8162;47.104;15.432;2022-11-04T00:47:30;16.97;;;13.77;;
16115;SDS011;8162;47.104;15.432;2022-11-04T00:49:55;17.73;;;13.27;;
16115;SDS011;8162;47.104;15.432;2022-11-04T00:52:21;21.13;;;14.13;;
16115;SDS011;8162;47.104;15.432;2022-11-04T00:54:47;19.50;;;13.53;;
16115;SDS011;8162;47.104;15.432;2022-11-04T00:57:13;22.30;;;16.23;;
16115;SDS011;8162;47.104;15.432;2022-11-04T00:59:39;17.97;;;13.43;;
16115;SDS011;8162;47.104;15.432;2022-11-04T01:02:06;18.30;;;14.07;;
16115;SDS011;8162;47.104;15.432;2022-11-04T01:04:32;20.03;;;13.67;;
16115;SDS011;8162;47.104;15.432;2022-11-04T01:06:59;17.17;;;13.90;;
16115;SDS011;8162;47.104;15.432;2022-11-04T01:09:25;18.80;;;13.63;;
16115;SDS011;8162;47.104;15.432;2022-11-04T01:11:51;18.20;;;13.77;;
16115;SDS011;8162;47.104;15.432;2022-11-04T01:14:17;16.30;;;12.73;;
16115;SDS011;8162;47.104;15.432;2022-11-04T01:16:43;20.80;;;13.50;;
16115;SDS011;8162;47.104;15.432;2022-11-04T01:19:09;20.60;;;13.93;;
16115;SDS011;8162;47.104;15.432;2022-11-04T01:21:35;17.07;;;12.83;;
16115;SDS011;8162;47.104;15.432;2022-11-04T01:24:01;15.80;;;12.47;;
16115;SDS011;8162;47.104;15.432;2022-11-04T01:26:28;20.80;;;13.00;;
16115;SDS011;8162;47.104;15.432;2022-11-04T01:28:54;18.97;;;13.80;;
16115;SDS011;8162;47.104;15.432;2022-11-04T01:31:22;18.33;;;13.60;;
16115;SDS011;8162;47.104;15.432;2022-11-04T01:33:49;17.67;;;13.27;;
16115;SDS011;8162;47.104;15.432;2022-11-04T01:36:16;20.37;;;14.63;;
16115;SDS011;8162;47.104;15.432;2022-11-04T01:38:42;19.37;;;12.97;;
16115;SDS011;8162;47.104;15.432;2022-11-04T01:41:09;19.43;;;14.77;;
16115;SDS011;8162;47.104;15.432;2022-11-04T01:49:40;19.23;;;13.37;;
16115;SDS011;8162;47.104;15.432;2022-11-04T01:52:14;20.07;;;14.03;;
16115;SDS011;8162;47.104;15.432;2022-11-04T01:54:44;19.90;;;14.17;;
16115;SDS011;8162;47.104;15.432;2022-11-04T01:57:13;18.00;;;13.33;;
16115;SDS011;8162;47.104;15.432;2022-11-04T01:59:46;15.93;;;13.27;;
16115;SDS011;8162;47.104;15.432;2022-11-04T02:02:12;17.70;;;14.60;;
16115;SDS011;8162;47.104;15.432;2022-11-04T02:04:38;18.00;;;12.83;;
16115;SDS011;8162;47.104;15.432;2022-11-04T02:07:05;19.67;;;13.83;;
16115;SDS011;8162;47.104;15.432;2022-11-04T02:09:33;17.80;;;13.80;;
16115;SDS011;8162;47.104;15.432;2022-11-04T02:12:01;17.43;;;13.13;;
16115;SDS011;8162;47.104;15.432;2022-11-04T02:14:47;17.53;;;14.47;;
16115;SDS011;8162;47.104;15.432;2022-11-04T02:30:35;19.40;;;12.80;;
16115;SDS011;8162;47.104;15.432;2022-11-04T02:35:49;18.23;;;13.83;;
16115;SDS011;8162;47.104;15.432;2022-11-04T02:38:28;13.87;;;12.30;;
16115;SDS011;8162;47.104;15.432;2022-11-04T02:41:34;20.50;;;13.73;;
16115;SDS011;8162;47.104;15.432;2022-11-04T02:46:46;20.50;;;13.47;;
16115;SDS011;8162;47.104;15.432;2022-11-04T02:49:33;18.43;;;14.40;;
16115;SDS011;8162;47.104;15.432;2022-11-04T02:52:09;18.13;;;14.23;;
16115;SDS011;8162;47.104;15.432;2022-11-04T02:54:43;18.50;;;13.53;;
16115;SDS011;8162;47.104;15.432;2022-11-04T02:57:14;20.73;;;15.50;;
16115;SDS011;8162;47.104;15.432;2022-11-04T02:59:48;20.17;;;15.77;;
16115;SDS011;8162;47.104;15.432;2022-11-04T03:02:22;20.70;;;14.97;;
16115;SDS011;8162;47.104;15.432;2022-11-04T03:04:53;22.77;;;16.10;;
16115;SDS011;8162;47.104;15.432;2022-11-04T03:07:23;20.63;;;15.53;;
16115;SDS011;8162;47.104;15.432;2022-11-04T03:09:54;24.50;;;16.70;;
16115;SDS011;8162;47.104;15.432;2022-11-04T03:12:29;24.07;;;16.03;;
16115;SDS011;8162;47.104;15.432;2022-11-04T03:15:02;19.60;;;16.40;;
16115;SDS011;8162;47.104;15.432;2022-11-04T03:17:33;20.57;;;16.40;;
16115;SDS011;8162;47.104;15.432;2022-11-04T03:20:12;21.30;;;16.40;;
16115;SDS011;8162;47.104;15.432;2022-11-04T03:22:45;22.97;;;17.17;;
16115;SDS011;8162;47.104;15.432;2022-11-04T03:25:11;25.90;;;20.43;;
16115;SDS011;8162;47.104;15.432;2022-11-04T03:27:46;27.10;;;20.07;;
16115;SDS011;8162;47.104;15.432;2022-11-04T03:30:39;23.83;;;19.13;;
16115;SDS011;8162;47.104;15.432;2022-11-04T03:33:32;24.17;;;18.47;;
16115;SDS011;8162;47.104;15.432;2022-11-04T03:36:09;27.23;;;20.13;;
16115;SDS011;8162;47.104;15.432;2022-11-04T03:38:35;25.33;;;19.53;;
16115;SDS011;8162;47.104;15.432;2022-11-04T03:41:02;26.63;;;21.17;;
16115;SDS011;8162;47.104;15.432;2022-11-04T03:43:33;28.70;;;20.67;;
16115;SDS011;8162;47.104;15.432;2022-11-04T03:46:00;30.73;;;21.23;;
16115;SDS011;8162;47.104;15.432;2022-11-04T03:48:27;25.53;;;19.03;;
16115;SDS011;8162;47.104;15.432;2022-11-04T03:50:54;29.23;;;19.90;;
16115;SDS011;8162;47.104;15.432;2022-11-04T03:53:20;28.40;;;20.80;;
16115;SDS011;8162;47.104;15.432;2022-11-04T03:58:51;27.43;;;19.87;;
16115;SDS011;8162;47.104;15.432;2022-11-04T04:07:33;32.23;;;21.33;;
16115;SDS011;8162;47.104;15.432;2022-11-04T04:10:02;27.00;;;20.20;;
16115;SDS011;8162;47.104;15.432;2022-11-04T04:12:55;30.27;;;22.07;;
16115;SDS011;8162;47.104;15.432;2022-11-04T04:15:35;30.73;;;21.90;;
16115;SDS011;8162;47.104;15.432;2022-11-04T04:18:38;26.80;;;19.60;;
16115;SDS011;8162;47.104;15.432;2022-11-04T04:21:08;25.83;;;20.47;;
16115;SDS011;8162;47.104;15.432;2022-11-04T04:23:38;25.77;;;19.80;;
16115;SDS011;8162;47.104;15.432;2022-11-04T04:26:25;27.40;;;20.80;;
16115;SDS011;8162;47.104;15.432;2022-11-04T04:29:10;27.10;;;20.27;;
16115;SDS011;8162;47.104;15.432;2022-11-04T04:31:36;29.83;;;22.77;;
16115;SDS011;8162;47.104;15.432;2022-11-04T04:34:20;32.40;;;21.63;;
16115;SDS011;8162;47.104;15.432;2022-11-04T04:36:51;29.77;;;21.90;;
16115;SDS011;8162;47.104;15.432;2022-11-04T04:39:24;30.60;;;21.73;;
16115;SDS011;8162;47.104;15.432;2022-11-04T04:42:16;36.07;;;22.93;;
16115;SDS011;8162;47.104;15.432;2022-11-04T04:45:02;28.27;;;22.00;;
16115;SDS011;8162;47.104;15.432;2022-11-04T04:47:31;29.73;;;22.17;;
16115;SDS011;8162;47.104;15.432;2022-11-04T04:49:58;29.00;;;22.23;;
16115;SDS011;8162;47.104;15.432;2022-11-04T04:52:26;27.13;;;22.47;;
16115;SDS011;8162;47.104;15.432;2022-11-04T04:54:55;27.53;;;20.57;;
16115;SDS011;8162;47.104;15.432;2022-11-04T04:57:20;28.43;;;21.50;;
16115;SDS011;8162;47.104;15.432;2022-11-04T04:59:46;34.13;;;23.97;;
16115;SDS011;8162;47.104;15.432;2022-11-04T05:02:12;31.63;;;23.07;;
16115;SDS011;8162;47.104;15.432;2022-11-04T05:04:38;31.53;;;21.90;;
16115;SDS011;8162;47.104;15.432;2022-11-04T05:07:03;34.43;;;21.50;;
16115;SDS011;8162;47.104;15.432;2022-11-04T05:09:31;25.70;;;22.30;;
16115;SDS011;8162;47.104;15.432;2022-11-04T05:11:56;33.70;;;22.47;;
16115;SDS011;8162;47.104;15.432;2022-11-04T05:14:22;34.43;;;23.03;;
16115;SDS011;8162;47.104;15.432;2022-11-04T05:16:47;29.83;;;22.17;;
16115;SDS011;8162;47.104;15.432;2022-11-04T05:19:13;29.33;;;22.77;;
16115;SDS011;8162;47.104;15.432;2022-11-04T05:21:39;30.03;;;21.93;;
16115;SDS011;8162;47.104;15.432;2022-11-04T05:24:04;35.17;;;23.43;;
16115;SDS011;8162;47.104;15.432;2022-11-04T05:26:30;28.80;;;22.07;;
16115;SDS011;8162;47.104;15.432;2022-11-04T05:28:56;34.20;;;23.63;;
16115;SDS011;8162;47.104;15.432;2022-11-04T05:31:21;33.93;;;23.43;;
16115;SDS011;8162;47.104;15.432;2022-11-04T05:33:47;29.30;;;21.20;;
16115;SDS011;8162;47.104;15.432;2022-11-04T05:36:13;32.53;;;24.17;;
16115;SDS011;8162;47.104;15.432;2022-11-04T05:38:40;35.60;;;26.53;;
16115;SDS011;8162;47.104;15.432;2022-11-04T05:41:07;37.40;;;26.97;;
16115;SDS011;8162;47.104;15.432;2022-11-04T05:43:35;35.40;;;26.73;;
16115;SDS011;8162;47.104;15.432;2022-11-04T05:46:01;30.90;;;23.30;;
16115;SDS011;8162;47.104;15.432;2022-11-04T05:48:27;33.97;;;23.80;;
16115;SDS011;8162;47.104;15.432;2022-11-04T05:50:53;33.57;;;24.13;;
16115;SDS011;8162;47.104;15.432;2022-11-04T05:53:19;32.70;;;23.80;;
16115;SDS011;8162;47.104;15.432;2022-11-04T05:55:45;35.13;;;24.47;;
16115;SDS011;8162;47.104;15.432;2022-11-04T05:58:10;34.93;;;24.60;;
16115;SDS011;8162;47.104;15.432;2022-11-04T06:00:36;39.47;;;26.80;;
16115;SDS011;8162;47.104;15.432;2022-11-04T06:03:02;36.70;;;25.63;;
16115;SDS011;8162;47.104;15.432;2022-11-04T06:05:28;42.07;;;26.40;;
16115;SDS011;8162;47.104;15.432;2022-11-04T06:07:54;41.80;;;28.83;;
16115;SDS011;8162;47.104;15.432;2022-11-04T06:10:20;36.97;;;26.37;;
16115;SDS011;8162;47.104;15.432;2022-11-04T06:12:46;36.57;;;27.10;;
16115;SDS011;8162;47.104;15.432;2022-11-04T06:15:11;36.97;;;25.97;;
16115;SDS011;8162;47.104;15.432;2022-11-04T06:17:37;42.23;;;28.13;;
16115;SDS011;8162;47.104;15.432;2022-11-04T06:20:03;40.97;;;27.63;;
16115;SDS011;8162;47.104;15.432;2022-11-04T06:22:30;41.50;;;27.70;;
16115;SDS011;8162;47.104;15.432;2022-11-04T06:24:56;41.10;;;29.10;;
16115;SDS011;8162;47.104;15.432;2022-11-04T06:27:22;45.43;;;31.03;;
16115;SDS011;8162;47.104;15.432;2022-11-04T06:29:47;38.80;;;28.23;;
16115;SDS011;8162;47.104;15.432;2022-11-04T06:32:15;48.73;;;30.57;;
16115;SDS011;8162;47.104;15.432;2022-11-04T06:34:42;42.30;;;29.23;;
16115;SDS011;8162;47.104;15.432;2022-11-04T06:37:08;34.97;;;24.73;;
16115;SDS011;8162;47.104;15.432;2022-11-04T06:39:34;41.80;;;28.13;;
16115;SDS011;8162;47.104;15.432;2022-11-04T06:42:00;41.67;;;28.30;;
16115;SDS011;8162;47.104;15.432;2022-11-04T06:44:26;43.03;;;28.60;;
16115;SDS011;8162;47.104;15.432;2022-11-04T06:46:52;44.07;;;29.57;;
16115;SDS011;8162;47.104;15.432;2022-11-04T06:49:18;41.77;;;26.63;;
16115;SDS011;8162;47.104;15.432;2022-11-04T06:51:48;40.37;;;28.43;;
16115;SDS011;8162;47.104;15.432;2022-11-04T06:54:15;43.73;;;28.20;;
16115;SDS011;8162;47.104;15.432;2022-11-04T06:56:41;46.67;;;29.83;;
16115;SDS011;8162;47.104;15.432;2022-11-04T06:59:07;40.07;;;27.37;;
16115;SDS011;8162;47.104;15.432;2022-11-04T07:01:34;40.73;;;26.90;;
16115;SDS011;8162;47.104;15.432;2022-11-04T07:04:01;43.00;;;27.53;;
16115;SDS011;8162;47.104;15.432;2022-11-04T07:06:29;45.97;;;29.37;;
16115;SDS011;8162;47.104;15.432;2022-11-04T07:08:56;41.17;;;28.43;;
16115;SDS011;8162;47.104;15.432;2022-11-04T07:11:24;40.33;;;27.43;;
16115;SDS011;8162;47.104;15.432;2022-11-04T07:13:50;42.33;;;27.63;;
16115;SDS011;8162;47.104;15.432;2022-11-04T07:16:16;40.10;;;27.87;;
16115;SDS011;8162;47.104;15.432;2022-11-04T07:18:42;37.10;;;26.23;;
16115;SDS011;8162;47.104;15.432;2022-11-04T07:21:09;40.87;;;26.57;;
16115;SDS011;8162;47.104;15.432;2022-11-04T07:23:35;36.00;;;25.33;;
16115;SDS011;8162;47.104;15.432;2022-11-04T07:26:01;40.07;;;26.87;;
16115;SDS011;8162;47.104;15.432;2022-11-04T07:28:28;35.10;;;25.77;;
16115;SDS011;8162;47.104;15.432;2022-11-04T07:30:58;40.40;;;27.27;;
16115;SDS011;8162;47.104;15.432;2022-11-04T07:33:25;39.17;;;26.07;;
16115;SDS011;8162;47.104;15.432;2022-11-04T07:35:51;33.03;;;24.80;;
16115;SDS011;8162;47.104;15.432;2022-11-04T07:38:18;32.93;;;24.97;;
16115;SDS011;8162;47.104;15.432;2022-11-04T07:40:44;33.87;;;25.13;;
16115;SDS011;8162;47.104;15.432;2022-11-04T07:43:10;30.50;;;23.37;;
16115;SDS011;8162;47.104;15.432;2022-11-04T07:45:36;29.00;;;22.43;;
16115;SDS011;8162;47.104;15.432;2022-11-04T07:48:02;32.80;;;24.90;;
16115;SDS011;8162;47.104;15.432;2022-11-04T07:50:27;30.50;;;23.63;;
16115;SDS011;8162;47.104;15.432;2022-11-04T07:52:53;32.73;;;22.83;;
16115;SDS011;8162;47.104;15.432;2022-11-04T07:55:19;31.00;;;22.70;;
16115;SDS011;8162;47.104;15.432;2022-11-04T07:57:45;33.97;;;25.00;;
16115;SDS011;8162;47.104;15.432;2022-11-04T08:00:12;32.57;;;23.40;;
16115;SDS011;8162;47.104;15.432;2022-11-04T08:02:40;27.90;;;21.90;;
16115;SDS011;8162;47.104;15.432;2022-11-04T08:05:10;27.73;;;20.63;;
16115;SDS011;8162;47.104;15.432;2022-11-04T08:07:39;24.10;;;19.30;;
16115;SDS011;8162;47.104;15.432;2022-11-04T08:10:06;27.63;;;19.97;;
16115;SDS011;8162;47.104;15.432;2022-11-04T08:12:33;24.47;;;19.97;;
16115;SDS011;8162;47.104;15.432;2022-11-04T08:14:59;28.27;;;19.90;;
16115;SDS011;8162;47.104;15.432;2022-11-04T08:17:24;28.83;;;21.13;;
16115;SDS011;8162;47.104;15.432;2022-11-04T08:19:50;24.43;;;18.70;;
16115;SDS011;8162;47.104;15.432;2022-11-04T08:22:16;29.03;;;19.03;;
16115;SDS011;8162;47.104;15.432;2022-11-04T08:24:42;25.93;;;20.53;;
16115;SDS011;8162;47.104;15.432;2022-11-04T08:27:11;23.60;;;17.03;;
16115;SDS011;8162;47.104;15.432;2022-11-04T08:29:37;22.87;;;18.00;;
16115;SDS011;8162;47.104;15.432;2022-11-04T08:32:03;21.33;;;17.40;;
16115;SDS011;8162;47.104;15.432;2022-11-04T08:34:28;26.13;;;20.87;;
16115;SDS011;8162;47.104;15.432;2022-11-04T08:36:54;25.40;;;19.43;;
16115;SDS011;8162;47.104;15.432;2022-11-04T08:39:21;26.37;;;18.57;;
16115;SDS011;8162;47.104;15.432;2022-11-04T08:41:47;23.73;;;17.77;;
16115;SDS011;8162;47.104;15.432;2022-11-04T08:44:14;23.97;;;17.23;;
16115;SDS011;8162;47.104;15.432;2022-11-04T08:46:41;23.13;;;17.70;;
16115;SDS011;8162;47.104;15.432;2022-11-04T08:49:08;23.60;;;18.23;;
16115;SDS011;8162;47.104;15.432;2022-11-04T08:51:34;23.73;;;20.30;;
16115;SDS011;8162;47.104;15.432;2022-11-04T08:54:02;24.63;;;19.30;;
16115;SDS011;8162;47.104;15.432;2022-11-04T08:56:29;27.10;;;19.00;;
16115;SDS011;8162;47.104;15.432;2022-11-04T08:58:57;23.03;;;17.80;;
16115;SDS011;8162;47.104;15.432;2022-11-04T09:01:24;22.73;;;17.27;;
16115;SDS011;8162;47.104;15.432;2022-11-04T09:03:51;23.13;;;17.60;;
16115;SDS011;8162;47.104;15.432;2022-11-04T09:06:21;19.97;;;16.20;;
16115;SDS011;8162;47.104;15.432;2022-11-04T09:08:49;21.53;;;17.60;;
16115;SDS011;8162;47.104;15.432;2022-11-04T09:11:16;19.20;;;15.97;;
16115;SDS011;8162;47.104;15.432;2022-11-04T09:13:42;19.03;;;16.90;;
16115;SDS011;8162;47.104;15.432;2022-11-04T09:16:09;16.73;;;14.30;;
16115;SDS011;8162;47.104;15.432;2022-11-04T09:18:37;18.83;;;14.03;;
16115;SDS011;8162;47.104;15.432;2022-11-04T09:21:03;22.40;;;15.37;;
16115;SDS011;8162;47.104;15.432;2022-11-04T09:23:30;20.60;;;15.33;;
16115;SDS011;8162;47.104;15.432;2022-11-04T09:25:56;21.63;;;15.37;;
16115;SDS011;8162;47.104;15.432;2022-11-04T09:28:27;18.90;;;14.87;;
16115;SDS011;8162;47.104;15.432;2022-11-04T09:30:52;25.93;;;17.23;;
16115;SDS011;8162;47.104;15.432;2022-11-04T09:33:18;19.83;;;15.23;;
16115;SDS011;8162;47.104;15.432;2022-11-04T09:35:52;20.90;;;16.27;;
16115;SDS011;8162;47.104;15.432;2022-11-04T09:38:19;21.07;;;14.83;;
16115;SDS011;8162;47.104;15.432;2022-11-04T09:40:44;19.30;;;16.03;;
16115;SDS011;8162;47.104;15.432;2022-11-04T09:46:15;21.00;;;16.77;;
16115;SDS011;8162;47.104;15.432;2022-11-04T09:48:46;16.77;;;14.47;;
16115;SDS011;8162;47.104;15.432;2022-11-04T09:51:15;23.47;;;17.07;;
16115;SDS011;8162;47.104;15.432;2022-11-04T09:53:53;19.90;;;15.40;;
16115;SDS011;8162;47.104;15.432;2022-11-04T09:56:24;23.07;;;16.80;;
16115;SDS011;8162;47.104;15.432;2022-11-04T09:58:54;23.90;;;16.87;;
16115;SDS011;8162;47.104;15.432;2022-11-04T10:01:23;22.10;;;17.30;;
16115;SDS011;8162;47.104;15.432;2022-11-04T10:10:08;21.47;;;15.60;;
16115;SDS011;8162;47.104;15.432;2022-11-04T10:13:17;21.90;;;16.60;;
16115;SDS011;8162;47.104;15.432;2022-11-04T10:18:54;21.57;;;16.27;;
16115;SDS011;8162;47.104;15.432;2022-11-04T10:24:16;25.27;;;18.07;;
16115;SDS011;8162;47.104;15.432;2022-11-04T10:32:39;20.03;;;15.77;;
16115;SDS011;8162;47.104;15.432;2022-11-04T10:37:34;23.10;;;16.87;;
16115;SDS011;8162;47.104;15.432;2022-11-04T10:42:48;21.27;;;17.07;;
16115;SDS011;8162;47.104;15.432;2022-11-04T10:45:15;22.10;;;16.97;;
16115;SDS011;8162;47.104;15.432;2022-11-04T10:47:46;24.23;;;16.53;;
16115;SDS011;8162;47.104;15.432;2022-11-04T10:53:19;23.20;;;17.40;;
16115;SDS011;8162;47.104;15.432;2022-11-04T10:58:46;25.37;;;17.83;;
16115;SDS011;8162;47.104;15.432;2022-11-04T11:01:32;26.30;;;18.07;;
16115;SDS011;8162;47.104;15.432;2022-11-04T11:03:59;27.23;;;18.47;;
16115;SDS011;8162;47.104;15.432;2022-11-04T11:06:30;23.10;;;18.60;;
16115;SDS011;8162;47.104;15.432;2022-11-04T11:09:48;20.77;;;16.37;;
16115;SDS011;8162;47.104;15.432;2022-11-04T11:11:52;26.10;;;17.80;;
16115;SDS011;8162;47.104;15.432;2022-11-04T11:14:40;18.23;;;15.57;;
16115;SDS011;8162;47.104;15.432;2022-11-04T11:25:30;19.43;;;15.50;;
16115;SDS011;8162;47.104;15.432;2022-11-04T11:28:45;17.77;;;14.13;;
16115;SDS011;8162;47.104;15.432;2022-11-04T11:33:17;20.33;;;15.03;;
16115;SDS011;8162;47.104;15.432;2022-11-04T11:36:13;23.00;;;15.03;;
16115;SDS011;8162;47.104;15.432;2022-11-04T11:39:02;17.10;;;13.43;;
16115;SDS011;8162;47.104;15.432;2022-11-04T11:41:27;19.47;;;13.23;;
16115;SDS011;8162;47.104;15.432;2022-11-04T11:44:05;20.83;;;14.20;;
16115;SDS011;8162;47.104;15.432;2022-11-04T11:46:48;17.57;;;13.37;;
16115;SDS011;8162;47.104;15.432;2022-11-04T11:49:22;19.13;;;14.17;;
16115;SDS011;8162;47.104;15.432;2022-11-04T11:51:54;21.37;;;16.47;;
16115;SDS011;8162;47.104;15.432;2022-11-04T11:54:40;22.73;;;17.60;;
16115;SDS011;8162;47.104;15.432;2022-11-04T11:57:12;22.87;;;16.90;;
16115;SDS011;8162;47.104;15.432;2022-11-04T11:59:58;21.30;;;16.50;;
16115;SDS011;8162;47.104;15.432;2022-11-04T12:02:35;22.40;;;15.43;;
16115;SDS011;8162;47.104;15.432;2022-11-04T12:05:07;25.57;;;17.83;;
16115;SDS011;8162;47.104;15.432;2022-11-04T12:07:39;23.70;;;16.70;;
16115;SDS011;8162;47.104;15.432;2022-11-04T12:10:33;26.47;;;17.63;;
16115;SDS011;8162;47.104;15.432;2022-11-04T12:13:19;28.20;;;17.90;;
16115;SDS011;8162;47.104;15.432;2022-11-04T12:23:56;22.30;;;16.33;;
16115;SDS011;8162;47.104;15.432;2022-11-04T12:26:49;25.13;;;17.63;;
16115;SDS011;8162;47.104;15.432;2022-11-04T12:48:29;19.10;;;14.13;;
16115;SDS011;8162;47.104;15.432;2022-11-04T12:53:49;20.47;;;13.67;;
16115;SDS011;8162;47.104;15.432;2022-11-04T12:56:36;18.40;;;13.50;;
16115;SDS011;8162;47.104;15.432;2022-11-04T13:01:49;18.17;;;12.37;;
16115;SDS011;8162;47.104;15.432;2022-11-04T13:07:41;18.73;;;12.90;;
16115;SDS011;8162;47.104;15.432;2022-11-04T13:10:22;16.13;;;12.03;;
16115;SDS011;8162;47.104;15.432;2022-11-04T13:12:54;17.70;;;12.77;;
16115;SDS011;8162;47.104;15.432;2022-11-04T13:15:25;19.20;;;12.63;;
16115;SDS011;8162;47.104;15.432;2022-11-04T13:17:57;21.03;;;13.20;;
16115;SDS011;8162;47.104;15.432;2022-11-04T13:20:30;17.10;;;12.53;;
16115;SDS011;8162;47.104;15.432;2022-11-04T13:23:03;14.80;;;12.03;;
16115;SDS011;8162;47.104;15.432;2022-11-04T13:25:35;16.53;;;12.30;;
16115;SDS011;8162;47.104;15.432;2022-11-04T13:28:05;22.23;;;13.63;;
16115;SDS011;8162;47.104;15.432;2022-11-04T13:38:49;24.07;;;14.10;;
16115;SDS011;8162;47.104;15.432;2022-11-04T13:44:36;21.43;;;16.10;;
16115;SDS011;8162;47.104;15.432;2022-11-04T13:47:11;23.47;;;15.80;;
16115;SDS011;8162;47.104;15.432;2022-11-04T13:49:47;6.83;;;5.87;;
16115;SDS011;8162;47.104;15.432;2022-11-04T13:52:14;4.13;;;3.20;;
16115;SDS011;8162;47.104;15.432;2022-11-04T13:59:39;2.67;;;2.10;;
16115;SDS011;8162;47.104;15.432;2022-11-04T14:04:40;2.17;;;0.90;;
16115;SDS011;8162;47.104;15.432;2022-11-04T14:07:08;2.20;;;0.90;;
16115;SDS011;8162;47.104;15.432;2022-11-04T14:12:28;0.60;;;0.47;;
16115;SDS011;8162;47.104;15.432;2022-11-04T14:15:07;1.03;;;0.60;;
16115;SDS011;8162;47.104;15.432;2022-11-04T14:22:31;2.00;;;0.60;;
16115;SDS011;8162;47.104;15.432;2022-11-04T14:25:20;2.67;;;0.50;;
16115;SDS011;8162;47.104;15.432;2022-11-04T14:27:57;0.57;;;0.30;;
16115;SDS011;8162;47.104;15.432;2022-11-04T14:32:58;0.70;;;0.23;;
16115;SDS011;8162;47.104;15.432;2022-11-04T14:35:32;0.70;;;0.50;;
16115;SDS011;8162;47.104;15.432;2022-11-04T14:38:02;0.60;;;0.40;;
16115;SDS011;8162;47.104;15.432;2022-11-04T14:40:50;0.30;;;0.30;;
16115;SDS011;8162;47.104;15.432;2022-11-04T14:43:35;0.77;;;0.60;;
16115;SDS011;8162;47.104;15.432;2022-11-04T14:46:04;0.30;;;0.30;;
16115;SDS011;8162;47.104;15.432;2022-11-04T14:48:30;0.43;;;0.40;;
16115;SDS011;8162;47.104;15.432;2022-11-04T14:50:56;0.47;;;0.30;;
16115;SDS011;8162;47.104;15.432;2022-11-04T14:53:28;2.03;;;0.40;;
16115;SDS011;8162;47.104;15.432;2022-11-04T14:56:03;0.40;;;0.40;;
16115;SDS011;8162;47.104;15.432;2022-11-04T14:58:51;1.10;;;0.67;;
16115;SDS011;8162;47.104;15.432;2022-11-04T15:01:23;1.07;;;0.60;;
16115;SDS011;8162;47.104;15.432;2022-11-04T15:03:49;0.67;;;0.53;;
16115;SDS011;8162;47.104;15.432;2022-11-04T15:06:27;8.90;;;3.47;;
16115;SDS011;8162;47.104;15.432;2022-11-04T15:08:54;0.50;;;0.50;;
16115;SDS011;8162;47.104;15.432;2022-11-04T15:11:27;3.00;;;0.77;;
16115;SDS011;8162;47.104;15.432;2022-11-04T15:14:16;1.50;;;0.50;;
16115;SDS011;8162;47.104;15.432;2022-11-04T15:16:46;1.73;;;1.10;;
16115;SDS011;8162;47.104;15.432;2022-11-04T15:19:17;1.00;;;0.53;;
16115;SDS011;8162;47.104;15.432;2022-11-04T15:21:56;1.07;;;0.50;;
16115;SDS011;8162;47.104;15.432;2022-11-04T15:24:25;0.30;;;0.30;;
16115;SDS011;8162;47.104;15.432;2022-11-04T15:26:52;0.40;;;0.40;;
16115;SDS011;8162;47.104;15.432;2022-11-04T15:29:20;1.23;;;0.40;;
16115;SDS011;8162;47.104;15.432;2022-11-04T15:32:00;0.93;;;0.40;;
16115;SDS011;8162;47.104;15.432;2022-11-04T15:34:28;0.70;;;0.50;;
16115;SDS011;8162;47.104;15.432;2022-11-04T15:36:56;0.30;;;0.30;;
16115;SDS011;8162;47.104;15.432;2022-11-04T15:39:29;1.30;;;0.30;;
16115;SDS011;8162;47.104;15.432;2022-11-04T15:42:02;0.63;;;0.40;;
16115;SDS011;8162;47.104;15.432;2022-11-04T15:44:50;0.70;;;0.40;;
16115;SDS011;8162;47.104;15.432;2022-11-04T15:49:46;0.70;;;0.50;;
16115;SDS011;8162;47.104;15.432;2022-11-04T15:52:16;0.70;;;0.30;;
16115;SDS011;8162;47.104;15.432;2022-11-04T15:54:50;1.93;;;1.83;;
16115;SDS011;8162;47.104;15.432;2022-11-04T15:57:19;0.40;;;0.40;;
16115;SDS011;8162;47.104;15.432;2022-11-04T15:59:49;1.17;;;0.50;;
16115;SDS011;8162;47.104;15.432;2022-11-04T16:02:49;0.57;;;0.47;;
16115;SDS011;8162;47.104;15.432;2022-11-04T16:07:46;4.63;;;1.17;;
16115;SDS011;8162;47.104;15.432;2022-11-04T16:12:58;0.60;;;0.60;;
16115;SDS011;8162;47.104;15.432;2022-11-04T16:18:24;0.57;;;0.57;;
16115;SDS011;8162;47.104;15.432;2022-11-04T16:20:56;0.67;;;0.63;;
16115;SDS011;8162;47.104;15.432;2022-11-04T16:23:26;0.40;;;0.40;;
16115;SDS011;8162;47.104;15.432;2022-11-04T16:25:57;4.43;;;2.17;;
16115;SDS011;8162;47.104;15.432;2022-11-04T16:28:33;12.17;;;5.50;;
16115;SDS011;8162;47.104;15.432;2022-11-04T16:31:02;8.37;;;3.50;;
16115;SDS011;8162;47.104;15.432;2022-11-04T16:33:29;1.90;;;1.20;;
16115;SDS011;8162;47.104;15.432;2022-11-04T16:35:55;1.93;;;0.57;;
16115;SDS011;8162;47.104;15.432;2022-11-04T16:38:21;1.07;;;0.50;;
16115;SDS011;8162;47.104;15.432;2022-11-04T16:40:47;0.43;;;0.20;;
16115;SDS011;8162;47.104;15.432;2022-11-04T16:43:14;0.30;;;0.30;;
16115;SDS011;8162;47.104;15.432;2022-11-04T16:45:45;0.47;;;0.30;;
16115;SDS011;8162;47.104;15.432;2022-11-04T16:48:16;0.50;;;0.43;;
16115;SDS011;8162;47.104;15.432;2022-11-04T16:50:43;0.40;;;0.40;;
16115;SDS011;8162;47.104;15.432;2022-11-04T16:53:11;0.50;;;0.50;;
16115;SDS011;8162;47.104;15.432;2022-11-04T16:55:38;1.03;;;0.50;;
16115;SDS011;8162;47.104;15.432;2022-11-04T16:58:05;0.43;;;0.40;;
16115;SDS011;8162;47.104;15.432;2022-11-04T17:00:31;1.00;;;0.70;;
16115;SDS011;8162;47.104;15.432;2022-11-04T17:03:01;0.30;;;0.30;;
16115;SDS011;8162;47.104;15.432;2022-11-04T17:05:45;0.70;;;0.60;;
16115;SDS011;8162;47.104;15.432;2022-11-04T17:08:20;0.53;;;0.50;;
16115;SDS011;8162;47.104;15.432;2022-11-04T17:10:45;0.60;;;0.47;;
16115;SDS011;8162;47.104;15.432;2022-11-04T17:13:11;0.70;;;0.70;;
16115;SDS011;8162;47.104;15.432;2022-11-04T17:15:37;1.00;;;0.70;;
16115;SDS011;8162;47.104;15.432;2022-11-04T17:18:04;1.00;;;0.47;;
16115;SDS011;8162;47.104;15.432;2022-11-04T17:20:31;0.60;;;0.50;;